sensor_id;sensor_type;location;lat;lon;timestamp;P1;durP1;ratioP1;P2;durP2;ratioP2
61569;SDS011;47462;59.172;17.196;2022-10-13T00:02:09;6.13;;;1.00;;
61569;SDS011;47462;59.172;17.196;2022-10-13T00:04:34;3.13;;;1.03;;
61569;SDS011;47462;59.172;17.196;2022-10-13T00:06:59;3.97;;;1.00;;
61569;SDS011;47462;59.172;17.196;2022-10-13T00:09:25;5.80;;;1.07;;
61569;SDS011;47462;59.172;17.196;2022-10-13T00:11:50;3.73;;;1.13;;
61569;SDS011;47462;59.172;17.196;2022-10-13T00:14:16;8.50;;;1.20;;
61569;SDS011;47462;59.172;17.196;2022-10-13T00:16:41;3.37;;;1.30;;
61569;SDS011;47462;59.172;17.196;2022-10-13T00:19:06;5.83;;;0.83;;
61569;SDS011;47462;59.172;17.196;2022-10-13T00:21:32;5.63;;;1.27;;
61569;SDS011;47462;59.172;17.196;2022-10-13T00:23:57;5.65;;;1.10;;
61569;SDS011;47462;59.172;17.196;2022-10-13T00:26:23;3.60;;;1.10;;
61569;SDS011;47462;59.172;17.196;2022-10-13T00:28:49;1.88;;;1.00;;
61569;SDS011;47462;59.172;17.196;2022-10-13T00:31:22;5.57;;;1.30;;
61569;SDS011;47462;59.172;17.196;2022-10-13T00:33:49;4.07;;;1.20;;
61569;SDS011;47462;59.172;17.196;2022-10-13T00:36:16;6.43;;;1.55;;
61569;SDS011;47462;59.172;17.196;2022-10-13T00:38:44;3.17;;;1.30;;
61569;SDS011;47462;59.172;17.196;2022-10-13T00:41:09;7.82;;;1.63;;
61569;SDS011;47462;59.172;17.196;2022-10-13T00:46:15;5.60;;;1.42;;
61569;SDS011;47462;59.172;17.196;2022-10-13T00:48:41;5.35;;;1.27;;
61569;SDS011;47462;59.172;17.196;2022-10-13T00:51:08;8.75;;;1.40;;
61569;SDS011;47462;59.172;17.196;2022-10-13T00:53:36;7.50;;;1.52;;
61569;SDS011;47462;59.172;17.196;2022-10-13T00:56:03;4.35;;;1.08;;
61569;SDS011;47462;59.172;17.196;2022-10-13T00:58:31;8.07;;;1.00;;
61569;SDS011;47462;59.172;17.196;2022-10-13T01:00:59;5.50;;;1.08;;
61569;SDS011;47462;59.172;17.196;2022-10-13T01:03:24;5.38;;;1.23;;
61569;SDS011;47462;59.172;17.196;2022-10-13T01:08:17;4.97;;;1.90;;
61569;SDS011;47462;59.172;17.196;2022-10-13T01:18:55;4.20;;;1.25;;
61569;SDS011;47462;59.172;17.196;2022-10-13T01:21:50;5.57;;;1.10;;
61569;SDS011;47462;59.172;17.196;2022-10-13T01:24:44;2.67;;;1.33;;
61569;SDS011;47462;59.172;17.196;2022-10-13T01:27:32;7.78;;;1.85;;
61569;SDS011;47462;59.172;17.196;2022-10-13T01:30:13;8.07;;;1.38;;
61569;SDS011;47462;59.172;17.196;2022-10-13T01:35:14;5.97;;;1.17;;
61569;SDS011;47462;59.172;17.196;2022-10-13T01:43:00;4.88;;;1.20;;
61569;SDS011;47462;59.172;17.196;2022-10-13T01:46:02;4.65;;;1.48;;
61569;SDS011;47462;59.172;17.196;2022-10-13T01:48:33;6.05;;;1.30;;
61569;SDS011;47462;59.172;17.196;2022-10-13T01:51:02;4.90;;;1.42;;
61569;SDS011;47462;59.172;17.196;2022-10-13T01:53:30;4.38;;;1.50;;
61569;SDS011;47462;59.172;17.196;2022-10-13T01:55:57;11.67;;;1.73;;
61569;SDS011;47462;59.172;17.196;2022-10-13T01:58:24;5.18;;;1.10;;
61569;SDS011;47462;59.172;17.196;2022-10-13T02:11:50;5.95;;;1.92;;
61569;SDS011;47462;59.172;17.196;2022-10-13T02:14:29;5.82;;;1.58;;
61569;SDS011;47462;59.172;17.196;2022-10-13T02:16:59;8.32;;;1.40;;
61569;SDS011;47462;59.172;17.196;2022-10-13T02:19:28;6.15;;;1.25;;
61569;SDS011;47462;59.172;17.196;2022-10-13T02:21:57;9.00;;;1.33;;
61569;SDS011;47462;59.172;17.196;2022-10-13T02:24:24;7.05;;;1.48;;
61569;SDS011;47462;59.172;17.196;2022-10-13T02:29:16;7.53;;;1.40;;
61569;SDS011;47462;59.172;17.196;2022-10-13T02:31:43;11.90;;;1.40;;
61569;SDS011;47462;59.172;17.196;2022-10-13T02:34:10;4.68;;;1.40;;
61569;SDS011;47462;59.172;17.196;2022-10-13T02:36:36;4.15;;;1.40;;
61569;SDS011;47462;59.172;17.196;2022-10-13T02:39:02;9.45;;;1.42;;
61569;SDS011;47462;59.172;17.196;2022-10-13T02:41:28;5.50;;;1.38;;
61569;SDS011;47462;59.172;17.196;2022-10-13T02:43:54;5.40;;;1.85;;
61569;SDS011;47462;59.172;17.196;2022-10-13T02:46:19;7.50;;;1.50;;
61569;SDS011;47462;59.172;17.196;2022-10-13T02:48:45;5.40;;;1.20;;
61569;SDS011;47462;59.172;17.196;2022-10-13T02:51:11;5.80;;;1.77;;
61569;SDS011;47462;59.172;17.196;2022-10-13T02:53:36;7.60;;;1.90;;
61569;SDS011;47462;59.172;17.196;2022-10-13T02:56:01;6.30;;;1.53;;
61569;SDS011;47462;59.172;17.196;2022-10-13T02:58:27;4.03;;;1.30;;
61569;SDS011;47462;59.172;17.196;2022-10-13T03:00:52;10.27;;;1.87;;
61569;SDS011;47462;59.172;17.196;2022-10-13T03:03:18;11.63;;;2.10;;
61569;SDS011;47462;59.172;17.196;2022-10-13T03:05:43;4.87;;;1.97;;
61569;SDS011;47462;59.172;17.196;2022-10-13T03:08:09;7.15;;;1.73;;
61569;SDS011;47462;59.172;17.196;2022-10-13T03:10:34;8.35;;;2.20;;
61569;SDS011;47462;59.172;17.196;2022-10-13T03:13:00;4.80;;;1.30;;
61569;SDS011;47462;59.172;17.196;2022-10-13T03:15:25;8.03;;;1.93;;
61569;SDS011;47462;59.172;17.196;2022-10-13T03:17:50;7.50;;;1.50;;
61569;SDS011;47462;59.172;17.196;2022-10-13T03:20:16;7.37;;;2.13;;
61569;SDS011;47462;59.172;17.196;2022-10-13T03:22:41;16.07;;;9.47;;
61569;SDS011;47462;59.172;17.196;2022-10-13T03:25:07;6.17;;;2.23;;
61569;SDS011;47462;59.172;17.196;2022-10-13T03:27:32;6.10;;;1.60;;
61569;SDS011;47462;59.172;17.196;2022-10-13T03:29:58;11.70;;;2.55;;
61569;SDS011;47462;59.172;17.196;2022-10-13T03:32:24;7.70;;;2.75;;
61569;SDS011;47462;59.172;17.196;2022-10-13T03:34:49;7.23;;;1.80;;
61569;SDS011;47462;59.172;17.196;2022-10-13T03:37:16;8.35;;;2.35;;
61569;SDS011;47462;59.172;17.196;2022-10-13T03:39:41;5.32;;;1.83;;
61569;SDS011;47462;59.172;17.196;2022-10-13T03:42:07;12.20;;;2.30;;
61569;SDS011;47462;59.172;17.196;2022-10-13T03:44:33;7.22;;;1.60;;
61569;SDS011;47462;59.172;17.196;2022-10-13T03:46:58;13.65;;;2.80;;
61569;SDS011;47462;59.172;17.196;2022-10-13T03:49:23;6.00;;;1.80;;
61569;SDS011;47462;59.172;17.196;2022-10-13T03:51:49;4.83;;;1.93;;
61569;SDS011;47462;59.172;17.196;2022-10-13T03:54:14;5.15;;;1.50;;
61569;SDS011;47462;59.172;17.196;2022-10-13T03:56:40;9.10;;;2.77;;
61569;SDS011;47462;59.172;17.196;2022-10-13T03:59:06;11.55;;;2.72;;
61569;SDS011;47462;59.172;17.196;2022-10-13T04:01:32;11.82;;;2.38;;
61569;SDS011;47462;59.172;17.196;2022-10-13T04:03:58;11.82;;;1.90;;
61569;SDS011;47462;59.172;17.196;2022-10-13T04:06:26;9.25;;;1.95;;
61569;SDS011;47462;59.172;17.196;2022-10-13T04:08:52;9.50;;;1.80;;
61569;SDS011;47462;59.172;17.196;2022-10-13T04:11:18;9.77;;;2.20;;
61569;SDS011;47462;59.172;17.196;2022-10-13T04:13:45;8.18;;;2.35;;
61569;SDS011;47462;59.172;17.196;2022-10-13T04:16:12;4.50;;;1.80;;
61569;SDS011;47462;59.172;17.196;2022-10-13T04:18:41;9.70;;;3.40;;
61569;SDS011;47462;59.172;17.196;2022-10-13T04:21:16;7.63;;;2.10;;
61569;SDS011;47462;59.172;17.196;2022-10-13T04:23:41;11.88;;;2.47;;
61569;SDS011;47462;59.172;17.196;2022-10-13T04:26:12;8.00;;;2.03;;
61569;SDS011;47462;59.172;17.196;2022-10-13T04:28:42;6.43;;;2.13;;
61569;SDS011;47462;59.172;17.196;2022-10-13T04:31:09;13.02;;;2.22;;
61569;SDS011;47462;59.172;17.196;2022-10-13T04:33:34;6.80;;;2.07;;
61569;SDS011;47462;59.172;17.196;2022-10-13T04:36:02;13.50;;;2.65;;
61569;SDS011;47462;59.172;17.196;2022-10-13T04:38:29;6.78;;;2.00;;
61569;SDS011;47462;59.172;17.196;2022-10-13T04:40:55;5.90;;;2.13;;
61569;SDS011;47462;59.172;17.196;2022-10-13T04:43:20;11.50;;;2.50;;
61569;SDS011;47462;59.172;17.196;2022-10-13T04:45:46;8.13;;;2.17;;
61569;SDS011;47462;59.172;17.196;2022-10-13T04:48:11;11.50;;;2.20;;
61569;SDS011;47462;59.172;17.196;2022-10-13T04:50:36;10.00;;;2.50;;
61569;SDS011;47462;59.172;17.196;2022-10-13T04:53:02;11.77;;;2.00;;
61569;SDS011;47462;59.172;17.196;2022-10-13T04:55:27;9.18;;;2.33;;
61569;SDS011;47462;59.172;17.196;2022-10-13T04:57:53;9.17;;;2.40;;
61569;SDS011;47462;59.172;17.196;2022-10-13T05:00:18;6.80;;;1.70;;
61569;SDS011;47462;59.172;17.196;2022-10-13T05:02:43;8.30;;;1.75;;
61569;SDS011;47462;59.172;17.196;2022-10-13T05:05:09;10.43;;;1.92;;
61569;SDS011;47462;59.172;17.196;2022-10-13T05:07:34;6.82;;;2.70;;
61569;SDS011;47462;59.172;17.196;2022-10-13T05:10:00;14.07;;;3.23;;
61569;SDS011;47462;59.172;17.196;2022-10-13T05:12:25;7.15;;;2.45;;
61569;SDS011;47462;59.172;17.196;2022-10-13T05:14:51;7.27;;;2.90;;
61569;SDS011;47462;59.172;17.196;2022-10-13T05:17:16;11.03;;;3.03;;
61569;SDS011;47462;59.172;17.196;2022-10-13T05:19:41;12.37;;;3.17;;
61569;SDS011;47462;59.172;17.196;2022-10-13T05:22:07;9.77;;;2.90;;
61569;SDS011;47462;59.172;17.196;2022-10-13T05:24:32;17.53;;;3.47;;
61569;SDS011;47462;59.172;17.196;2022-10-13T05:27:04;15.23;;;2.95;;
61569;SDS011;47462;59.172;17.196;2022-10-13T05:29:33;14.32;;;3.30;;
61569;SDS011;47462;59.172;17.196;2022-10-13T05:31:58;15.60;;;3.13;;
61569;SDS011;47462;59.172;17.196;2022-10-13T05:34:23;14.30;;;3.33;;
61569;SDS011;47462;59.172;17.196;2022-10-13T05:36:49;14.50;;;4.27;;
61569;SDS011;47462;59.172;17.196;2022-10-13T05:39:14;11.70;;;2.80;;
61569;SDS011;47462;59.172;17.196;2022-10-13T05:41:39;12.20;;;3.07;;
61569;SDS011;47462;59.172;17.196;2022-10-13T05:44:06;12.95;;;3.42;;
61569;SDS011;47462;59.172;17.196;2022-10-13T05:46:32;12.85;;;2.83;;
61569;SDS011;47462;59.172;17.196;2022-10-13T05:48:58;13.02;;;3.25;;
61569;SDS011;47462;59.172;17.196;2022-10-13T05:51:34;12.77;;;3.53;;
61569;SDS011;47462;59.172;17.196;2022-10-13T05:56:29;6.70;;;2.60;;
61569;SDS011;47462;59.172;17.196;2022-10-13T05:59:02;6.85;;;2.85;;
61569;SDS011;47462;59.172;17.196;2022-10-13T06:01:31;8.85;;;3.40;;
61569;SDS011;47462;59.172;17.196;2022-10-13T06:04:01;7.82;;;2.97;;
61569;SDS011;47462;59.172;17.196;2022-10-13T06:06:30;8.30;;;2.80;;
61569;SDS011;47462;59.172;17.196;2022-10-13T06:08:56;8.68;;;3.20;;
61569;SDS011;47462;59.172;17.196;2022-10-13T06:11:21;14.80;;;6.50;;
61569;SDS011;47462;59.172;17.196;2022-10-13T06:13:47;15.00;;;7.00;;
61569;SDS011;47462;59.172;17.196;2022-10-13T06:16:12;27.80;;;11.37;;
61569;SDS011;47462;59.172;17.196;2022-10-13T06:18:37;26.33;;;8.48;;
61569;SDS011;47462;59.172;17.196;2022-10-13T06:21:03;41.58;;;22.63;;
61569;SDS011;47462;59.172;17.196;2022-10-13T06:23:28;223.38;;;126.20;;
61569;SDS011;47462;59.172;17.196;2022-10-13T06:25:54;193.87;;;119.63;;
61569;SDS011;47462;59.172;17.196;2022-10-13T06:28:20;140.77;;;86.93;;
61569;SDS011;47462;59.172;17.196;2022-10-13T06:30:46;63.17;;;36.27;;
61569;SDS011;47462;59.172;17.196;2022-10-13T06:33:17;61.33;;;39.28;;
61569;SDS011;47462;59.172;17.196;2022-10-13T06:35:43;54.13;;;36.10;;
61569;SDS011;47462;59.172;17.196;2022-10-13T06:38:09;35.28;;;18.08;;
61569;SDS011;47462;59.172;17.196;2022-10-13T06:40:34;24.90;;;9.15;;
61569;SDS011;47462;59.172;17.196;2022-10-13T06:45:26;19.77;;;8.65;;
61569;SDS011;47462;59.172;17.196;2022-10-13T06:47:54;16.10;;;6.95;;
61569;SDS011;47462;59.172;17.196;2022-10-13T06:50:20;24.33;;;8.32;;
61569;SDS011;47462;59.172;17.196;2022-10-13T06:55:11;18.13;;;6.13;;
61569;SDS011;47462;59.172;17.196;2022-10-13T06:57:37;18.38;;;6.30;;
61569;SDS011;47462;59.172;17.196;2022-10-13T07:00:03;11.77;;;6.05;;
61569;SDS011;47462;59.172;17.196;2022-10-13T07:02:29;18.33;;;5.32;;
61569;SDS011;47462;59.172;17.196;2022-10-13T07:04:55;15.10;;;6.53;;
61569;SDS011;47462;59.172;17.196;2022-10-13T07:07:20;21.13;;;6.17;;
61569;SDS011;47462;59.172;17.196;2022-10-13T07:09:45;12.52;;;4.82;;
61569;SDS011;47462;59.172;17.196;2022-10-13T07:12:12;12.10;;;6.33;;
61569;SDS011;47462;59.172;17.196;2022-10-13T07:14:38;16.52;;;5.18;;
61569;SDS011;47462;59.172;17.196;2022-10-13T07:17:03;8.93;;;3.50;;
61569;SDS011;47462;59.172;17.196;2022-10-13T07:19:29;19.37;;;4.93;;
61569;SDS011;47462;59.172;17.196;2022-10-13T07:21:55;10.35;;;3.58;;
61569;SDS011;47462;59.172;17.196;2022-10-13T07:24:21;14.70;;;4.07;;
61569;SDS011;47462;59.172;17.196;2022-10-13T07:26:46;13.40;;;3.42;;
61569;SDS011;47462;59.172;17.196;2022-10-13T07:29:12;13.77;;;3.15;;
61569;SDS011;47462;59.172;17.196;2022-10-13T07:31:38;18.98;;;3.42;;
61569;SDS011;47462;59.172;17.196;2022-10-13T07:34:03;9.82;;;3.08;;
61569;SDS011;47462;59.172;17.196;2022-10-13T07:36:30;11.27;;;3.33;;
61569;SDS011;47462;59.172;17.196;2022-10-13T07:38:56;13.95;;;2.92;;
61569;SDS011;47462;59.172;17.196;2022-10-13T07:41:22;9.38;;;2.85;;
61569;SDS011;47462;59.172;17.196;2022-10-13T07:43:48;7.80;;;2.30;;
61569;SDS011;47462;59.172;17.196;2022-10-13T07:46:17;9.95;;;4.00;;
61569;SDS011;47462;59.172;17.196;2022-10-13T07:48:43;8.87;;;3.20;;
61569;SDS011;47462;59.172;17.196;2022-10-13T07:51:09;8.00;;;2.63;;
61569;SDS011;47462;59.172;17.196;2022-10-13T07:53:37;16.17;;;2.60;;
61569;SDS011;47462;59.172;17.196;2022-10-13T07:56:03;10.77;;;2.35;;
61569;SDS011;47462;59.172;17.196;2022-10-13T07:58:31;12.55;;;2.80;;
61569;SDS011;47462;59.172;17.196;2022-10-13T08:00:59;13.77;;;3.55;;
61569;SDS011;47462;59.172;17.196;2022-10-13T08:03:25;14.02;;;3.35;;
61569;SDS011;47462;59.172;17.196;2022-10-13T08:05:51;8.60;;;1.80;;
61569;SDS011;47462;59.172;17.196;2022-10-13T08:10:43;7.78;;;2.15;;
61569;SDS011;47462;59.172;17.196;2022-10-13T08:13:09;14.23;;;2.65;;
61569;SDS011;47462;59.172;17.196;2022-10-13T08:15:38;7.38;;;2.00;;
61569;SDS011;47462;59.172;17.196;2022-10-13T08:18:07;11.45;;;3.03;;
61569;SDS011;47462;59.172;17.196;2022-10-13T08:20:33;9.65;;;2.17;;
61569;SDS011;47462;59.172;17.196;2022-10-13T08:22:59;12.70;;;3.20;;
61569;SDS011;47462;59.172;17.196;2022-10-13T08:25:25;9.80;;;2.40;;
61569;SDS011;47462;59.172;17.196;2022-10-13T08:27:50;12.52;;;2.33;;
61569;SDS011;47462;59.172;17.196;2022-10-13T08:30:15;10.50;;;2.80;;
61569;SDS011;47462;59.172;17.196;2022-10-13T08:32:41;7.88;;;2.08;;
61569;SDS011;47462;59.172;17.196;2022-10-13T08:35:07;8.10;;;2.15;;
61569;SDS011;47462;59.172;17.196;2022-10-13T08:37:34;8.82;;;1.90;;
61569;SDS011;47462;59.172;17.196;2022-10-13T08:39:59;10.07;;;2.40;;
61569;SDS011;47462;59.172;17.196;2022-10-13T08:42:25;14.93;;;2.75;;
61569;SDS011;47462;59.172;17.196;2022-10-13T08:44:52;11.95;;;2.05;;
61569;SDS011;47462;59.172;17.196;2022-10-13T08:50:15;9.50;;;1.98;;
61569;SDS011;47462;59.172;17.196;2022-10-13T08:52:53;11.73;;;2.53;;
61569;SDS011;47462;59.172;17.196;2022-10-13T08:55:24;7.07;;;2.35;;
61569;SDS011;47462;59.172;17.196;2022-10-13T08:58:05;10.90;;;2.22;;
61569;SDS011;47462;59.172;17.196;2022-10-13T09:00:37;8.88;;;2.25;;
61569;SDS011;47462;59.172;17.196;2022-10-13T09:03:22;8.30;;;2.00;;
61569;SDS011;47462;59.172;17.196;2022-10-13T09:05:58;11.88;;;2.28;;
61569;SDS011;47462;59.172;17.196;2022-10-13T09:10:56;11.57;;;2.33;;
61569;SDS011;47462;59.172;17.196;2022-10-13T09:13:23;11.73;;;1.85;;
61569;SDS011;47462;59.172;17.196;2022-10-13T09:15:49;9.27;;;2.15;;
61569;SDS011;47462;59.172;17.196;2022-10-13T09:18:14;9.37;;;2.20;;
61569;SDS011;47462;59.172;17.196;2022-10-13T09:20:40;10.45;;;2.15;;
61569;SDS011;47462;59.172;17.196;2022-10-13T09:23:20;9.02;;;2.50;;
61569;SDS011;47462;59.172;17.196;2022-10-13T09:25:51;5.03;;;1.50;;
61569;SDS011;47462;59.172;17.196;2022-10-13T09:28:22;14.48;;;1.98;;
61569;SDS011;47462;59.172;17.196;2022-10-13T09:33:45;10.90;;;2.10;;
61569;SDS011;47462;59.172;17.196;2022-10-13T09:36:24;8.30;;;1.80;;
61569;SDS011;47462;59.172;17.196;2022-10-13T09:41:39;12.48;;;1.92;;
61569;SDS011;47462;59.172;17.196;2022-10-13T09:44:10;15.65;;;2.38;;
61569;SDS011;47462;59.172;17.196;2022-10-13T09:46:43;11.00;;;1.65;;
61569;SDS011;47462;59.172;17.196;2022-10-13T09:49:45;14.18;;;1.90;;
61569;SDS011;47462;59.172;17.196;2022-10-13T09:59:52;7.18;;;1.55;;
61569;SDS011;47462;59.172;17.196;2022-10-13T10:05:25;5.55;;;1.83;;
61569;SDS011;47462;59.172;17.196;2022-10-13T10:07:59;10.00;;;2.08;;
61569;SDS011;47462;59.172;17.196;2022-10-13T10:10:38;15.00;;;2.33;;
61569;SDS011;47462;59.172;17.196;2022-10-13T10:13:05;10.60;;;1.90;;
61569;SDS011;47462;59.172;17.196;2022-10-13T10:15:37;9.10;;;2.00;;
61569;SDS011;47462;59.172;17.196;2022-10-13T10:18:13;11.35;;;2.10;;
61569;SDS011;47462;59.172;17.196;2022-10-13T10:23:52;10.75;;;2.10;;
61569;SDS011;47462;59.172;17.196;2022-10-13T10:34:40;8.98;;;1.77;;
61569;SDS011;47462;59.172;17.196;2022-10-13T10:40:18;12.05;;;1.77;;
61569;SDS011;47462;59.172;17.196;2022-10-13T10:45:41;9.60;;;1.85;;
61569;SDS011;47462;59.172;17.196;2022-10-13T10:48:19;10.00;;;1.75;;
61569;SDS011;47462;59.172;17.196;2022-10-13T10:50:48;9.30;;;2.00;;
61569;SDS011;47462;59.172;17.196;2022-10-13T10:53:21;7.60;;;2.08;;
61569;SDS011;47462;59.172;17.196;2022-10-13T11:01:23;7.25;;;2.00;;
61569;SDS011;47462;59.172;17.196;2022-10-13T11:06:23;9.13;;;2.70;;
61569;SDS011;47462;59.172;17.196;2022-10-13T11:08:55;7.80;;;1.98;;
61569;SDS011;47462;59.172;17.196;2022-10-13T11:11:28;12.25;;;1.90;;
61569;SDS011;47462;59.172;17.196;2022-10-13T11:13:55;7.93;;;2.20;;
61569;SDS011;47462;59.172;17.196;2022-10-13T11:16:32;8.30;;;1.60;;
61569;SDS011;47462;59.172;17.196;2022-10-13T11:19:00;11.30;;;1.75;;
61569;SDS011;47462;59.172;17.196;2022-10-13T11:27:40;8.68;;;1.58;;
61569;SDS011;47462;59.172;17.196;2022-10-13T11:29:59;8.00;;;1.33;;
61569;SDS011;47462;59.172;17.196;2022-10-13T11:56:55;8.70;;;1.75;;
61569;SDS011;47462;59.172;17.196;2022-10-13T11:59:32;6.45;;;1.77;;
61569;SDS011;47462;59.172;17.196;2022-10-13T12:04:39;6.63;;;1.50;;
61569;SDS011;47462;59.172;17.196;2022-10-13T12:07:18;9.18;;;2.20;;
61569;SDS011;47462;59.172;17.196;2022-10-13T12:09:53;11.77;;;2.00;;
61569;SDS011;47462;59.172;17.196;2022-10-13T12:12:21;10.18;;;1.90;;
61569;SDS011;47462;59.172;17.196;2022-10-13T12:14:49;5.35;;;1.52;;
61569;SDS011;47462;59.172;17.196;2022-10-13T12:17:33;6.88;;;1.65;;
61569;SDS011;47462;59.172;17.196;2022-10-13T12:20:22;6.00;;;1.70;;
61569;SDS011;47462;59.172;17.196;2022-10-13T12:22:50;9.18;;;2.10;;
61569;SDS011;47462;59.172;17.196;2022-10-13T12:25:20;7.85;;;1.98;;
61569;SDS011;47462;59.172;17.196;2022-10-13T12:27:48;9.30;;;2.00;;
61569;SDS011;47462;59.172;17.196;2022-10-13T12:30:28;7.95;;;1.80;;
61569;SDS011;47462;59.172;17.196;2022-10-13T12:33:02;7.60;;;1.50;;
61569;SDS011;47462;59.172;17.196;2022-10-13T12:35:41;7.10;;;1.42;;
61569;SDS011;47462;59.172;17.196;2022-10-13T12:38:11;7.70;;;2.00;;
61569;SDS011;47462;59.172;17.196;2022-10-13T12:40:43;8.37;;;1.27;;
61569;SDS011;47462;59.172;17.196;2022-10-13T12:43:10;9.88;;;1.50;;
61569;SDS011;47462;59.172;17.196;2022-10-13T12:45:42;8.75;;;1.40;;
61569;SDS011;47462;59.172;17.196;2022-10-13T12:48:26;8.98;;;2.30;;
61569;SDS011;47462;59.172;17.196;2022-10-13T12:51:34;8.77;;;1.80;;
61569;SDS011;47462;59.172;17.196;2022-10-13T12:53:52;10.15;;;1.50;;
61569;SDS011;47462;59.172;17.196;2022-10-13T12:56:25;7.88;;;2.03;;
61569;SDS011;47462;59.172;17.196;2022-10-13T12:58:52;6.93;;;1.58;;
61569;SDS011;47462;59.172;17.196;2022-10-13T13:04:38;7.18;;;1.83;;
61569;SDS011;47462;59.172;17.196;2022-10-13T13:07:03;8.98;;;2.20;;
61569;SDS011;47462;59.172;17.196;2022-10-13T13:09:33;8.48;;;1.98;;
61569;SDS011;47462;59.172;17.196;2022-10-13T13:14:41;7.25;;;1.70;;
61569;SDS011;47462;59.172;17.196;2022-10-13T13:17:12;8.40;;;1.80;;
61569;SDS011;47462;59.172;17.196;2022-10-13T13:19:38;9.88;;;2.50;;
61569;SDS011;47462;59.172;17.196;2022-10-13T13:22:05;4.82;;;1.40;;
61569;SDS011;47462;59.172;17.196;2022-10-13T13:24:31;9.48;;;1.40;;
61569;SDS011;47462;59.172;17.196;2022-10-13T13:26:57;10.93;;;1.48;;
61569;SDS011;47462;59.172;17.196;2022-10-13T13:29:23;5.30;;;1.55;;
61569;SDS011;47462;59.172;17.196;2022-10-13T13:31:48;10.45;;;1.65;;
61569;SDS011;47462;59.172;17.196;2022-10-13T13:34:15;10.55;;;2.33;;
61569;SDS011;47462;59.172;17.196;2022-10-13T13:36:40;7.53;;;1.37;;
61569;SDS011;47462;59.172;17.196;2022-10-13T13:39:15;8.57;;;2.47;;
61569;SDS011;47462;59.172;17.196;2022-10-13T13:41:42;8.07;;;2.00;;
61569;SDS011;47462;59.172;17.196;2022-10-13T13:44:07;7.85;;;1.50;;
61569;SDS011;47462;59.172;17.196;2022-10-13T13:46:33;5.65;;;1.63;;
61569;SDS011;47462;59.172;17.196;2022-10-13T13:48:59;10.93;;;1.92;;
61569;SDS011;47462;59.172;17.196;2022-10-13T13:51:24;6.00;;;1.52;;
61569;SDS011;47462;59.172;17.196;2022-10-13T13:53:49;10.98;;;1.58;;
61569;SDS011;47462;59.172;17.196;2022-10-13T13:58:41;5.70;;;1.83;;
61569;SDS011;47462;59.172;17.196;2022-10-13T14:01:07;5.70;;;1.52;;
61569;SDS011;47462;59.172;17.196;2022-10-13T14:05:59;11.82;;;2.28;;
61569;SDS011;47462;59.172;17.196;2022-10-13T14:08:24;9.18;;;1.50;;
61569;SDS011;47462;59.172;17.196;2022-10-13T14:10:49;7.05;;;1.58;;
61569;SDS011;47462;59.172;17.196;2022-10-13T14:13:15;12.50;;;2.00;;
61569;SDS011;47462;59.172;17.196;2022-10-13T14:15:40;6.68;;;1.88;;
61569;SDS011;47462;59.172;17.196;2022-10-13T14:18:06;6.82;;;1.77;;
61569;SDS011;47462;59.172;17.196;2022-10-13T14:20:31;7.45;;;1.75;;
61569;SDS011;47462;59.172;17.196;2022-10-13T14:22:57;6.03;;;1.63;;
61569;SDS011;47462;59.172;17.196;2022-10-13T14:25:25;11.65;;;1.98;;
61569;SDS011;47462;59.172;17.196;2022-10-13T14:27:50;6.78;;;1.23;;
61569;SDS011;47462;59.172;17.196;2022-10-13T14:30:16;4.53;;;1.40;;
61569;SDS011;47462;59.172;17.196;2022-10-13T14:32:41;10.13;;;2.67;;
61569;SDS011;47462;59.172;17.196;2022-10-13T14:35:07;4.50;;;1.88;;
61569;SDS011;47462;59.172;17.196;2022-10-13T14:37:33;7.07;;;1.60;;
61569;SDS011;47462;59.172;17.196;2022-10-13T14:39:58;8.05;;;1.83;;
61569;SDS011;47462;59.172;17.196;2022-10-13T14:42:24;11.27;;;2.15;;
61569;SDS011;47462;59.172;17.196;2022-10-13T14:44:49;6.15;;;1.58;;
61569;SDS011;47462;59.172;17.196;2022-10-13T14:47:15;11.85;;;2.10;;
61569;SDS011;47462;59.172;17.196;2022-10-13T14:49:40;4.18;;;1.60;;
61569;SDS011;47462;59.172;17.196;2022-10-13T14:52:06;12.20;;;1.70;;
61569;SDS011;47462;59.172;17.196;2022-10-13T14:54:32;7.50;;;2.80;;
61569;SDS011;47462;59.172;17.196;2022-10-13T14:56:58;8.70;;;1.65;;
61569;SDS011;47462;59.172;17.196;2022-10-13T14:59:25;9.77;;;1.55;;
61569;SDS011;47462;59.172;17.196;2022-10-13T15:01:50;8.52;;;2.35;;
61569;SDS011;47462;59.172;17.196;2022-10-13T15:04:16;12.13;;;1.55;;
61569;SDS011;47462;59.172;17.196;2022-10-13T15:06:41;12.15;;;1.98;;
61569;SDS011;47462;59.172;17.196;2022-10-13T15:09:07;9.55;;;1.88;;
61569;SDS011;47462;59.172;17.196;2022-10-13T15:11:33;9.40;;;2.13;;
61569;SDS011;47462;59.172;17.196;2022-10-13T15:13:59;9.40;;;2.30;;
61569;SDS011;47462;59.172;17.196;2022-10-13T15:16:26;10.98;;;1.52;;
61569;SDS011;47462;59.172;17.196;2022-10-13T15:18:53;5.97;;;1.60;;
61569;SDS011;47462;59.172;17.196;2022-10-13T15:21:20;12.07;;;2.05;;
61569;SDS011;47462;59.172;17.196;2022-10-13T15:23:45;11.52;;;1.90;;
61569;SDS011;47462;59.172;17.196;2022-10-13T15:26:12;8.10;;;2.13;;
61569;SDS011;47462;59.172;17.196;2022-10-13T15:28:40;10.27;;;1.88;;
61569;SDS011;47462;59.172;17.196;2022-10-13T15:31:07;8.30;;;1.52;;
61569;SDS011;47462;59.172;17.196;2022-10-13T15:33:33;10.93;;;2.38;;
61569;SDS011;47462;59.172;17.196;2022-10-13T15:35:58;6.88;;;1.85;;
61569;SDS011;47462;59.172;17.196;2022-10-13T15:38:24;21.10;;;8.10;;
61569;SDS011;47462;59.172;17.196;2022-10-13T15:40:50;9.38;;;3.50;;
61569;SDS011;47462;59.172;17.196;2022-10-13T15:43:16;12.68;;;3.25;;
61569;SDS011;47462;59.172;17.196;2022-10-13T15:45:42;7.65;;;2.30;;
61569;SDS011;47462;59.172;17.196;2022-10-13T15:48:08;8.00;;;2.33;;
61569;SDS011;47462;59.172;17.196;2022-10-13T15:50:37;8.35;;;2.85;;
61569;SDS011;47462;59.172;17.196;2022-10-13T15:53:04;8.30;;;2.15;;
61569;SDS011;47462;59.172;17.196;2022-10-13T15:55:30;6.50;;;2.00;;
61569;SDS011;47462;59.172;17.196;2022-10-13T15:57:56;7.13;;;1.80;;
61569;SDS011;47462;59.172;17.196;2022-10-13T16:00:21;13.50;;;2.60;;
61569;SDS011;47462;59.172;17.196;2022-10-13T16:02:47;9.93;;;1.50;;
61569;SDS011;47462;59.172;17.196;2022-10-13T16:05:15;8.73;;;1.63;;
61569;SDS011;47462;59.172;17.196;2022-10-13T16:07:40;7.00;;;1.50;;
61569;SDS011;47462;59.172;17.196;2022-10-13T16:10:07;9.55;;;1.52;;
61569;SDS011;47462;59.172;17.196;2022-10-13T16:12:34;8.65;;;1.50;;
61569;SDS011;47462;59.172;17.196;2022-10-13T16:14:59;8.35;;;2.13;;
61569;SDS011;47462;59.172;17.196;2022-10-13T16:17:25;10.97;;;2.60;;
61569;SDS011;47462;59.172;17.196;2022-10-13T16:19:50;7.53;;;1.60;;
61569;SDS011;47462;59.172;17.196;2022-10-13T16:22:16;8.68;;;2.08;;
61569;SDS011;47462;59.172;17.196;2022-10-13T16:24:41;10.48;;;2.38;;
61569;SDS011;47462;59.172;17.196;2022-10-13T16:27:07;9.45;;;2.30;;
61569;SDS011;47462;59.172;17.196;2022-10-13T16:29:32;9.43;;;1.80;;
61569;SDS011;47462;59.172;17.196;2022-10-13T16:31:58;6.83;;;2.03;;
61569;SDS011;47462;59.172;17.196;2022-10-13T16:34:24;8.93;;;2.30;;
61569;SDS011;47462;59.172;17.196;2022-10-13T16:36:50;8.40;;;1.80;;
61569;SDS011;47462;59.172;17.196;2022-10-13T16:39:16;7.55;;;1.90;;
61569;SDS011;47462;59.172;17.196;2022-10-13T16:41:41;7.63;;;2.10;;
61569;SDS011;47462;59.172;17.196;2022-10-13T16:44:06;13.43;;;2.33;;
61569;SDS011;47462;59.172;17.196;2022-10-13T16:46:32;5.57;;;2.20;;
61569;SDS011;47462;59.172;17.196;2022-10-13T16:48:57;8.40;;;2.38;;